Time;durP1;ratioP1;P1;durP2;ratioP2;P2;SDS_P1;SDS_P2;PMS_P1;PMS_P2;Temp;Humidity;BMP_temperature;BMP_pressure;BME280_temperature;BME280_humidity;BME280_pressure;Samples;Min_cycle;Max_cycle;Signal;HPM_P1;HPM_P2
2022/04/24 00:00:15;;;;;;;13.47;12.07;;;12.10;99.90;;;;;;5096260;28;20201;-82
2022/04/24 00:02:42;;;;;;;14.23;12.50;;;12.10;99.90;;;;;;5096687;28;20492;-83
2022/04/24 00:05:10;;;;;;;12.83;11.63;;;12.10;99.90;;;;;;5095662;28;20201;-83
2022/04/24 00:07:37;;;;;;;13.17;11.80;;;12.10;99.90;;;;;;5096676;28;20193;-81
2022/04/24 00:10:05;;;;;;;13.27;11.97;;;12.00;99.90;;;;;;5095972;28;20204;-83
2022/04/24 00:12:33;;;;;;;14.07;12.47;;;12.00;99.90;;;;;;5095754;28;20239;-82
2022/04/24 00:15:00;;;;;;;14.90;13.30;;;11.90;99.90;;;;;;5096454;28;20185;-81
2022/04/24 00:17:29;;;;;;;14.73;13.27;;;11.90;99.90;;;;;;5095635;28;20199;-80
2022/04/24 00:19:56;;;;;;;16.20;14.60;;;11.80;99.90;;;;;;5095517;28;20266;-80
2022/04/24 00:22:23;;;;;;;16.73;14.63;;;11.80;99.90;;;;;;5095857;28;20220;-81
2022/04/24 00:24:49;;;;;;;15.37;13.87;;;11.70;99.90;;;;;;5094946;28;20204;-80
2022/04/24 00:27:16;;;;;;;16.67;14.43;;;11.60;99.90;;;;;;5095595;28;20608;-82
2022/04/24 00:29:44;;;;;;;15.60;14.00;;;11.60;99.90;;;;;;5096324;28;20204;-82
2022/04/24 00:32:11;;;;;;;15.30;13.70;;;11.60;99.90;;;;;;5094969;28;20220;-82
2022/04/24 00:34:38;;;;;;;17.73;14.33;;;11.50;99.90;;;;;;5096048;28;20473;-81
2022/04/24 00:37:05;;;;;;;15.67;14.00;;;11.50;99.90;;;;;;5096035;28;20546;-82
2022/04/24 00:39:32;;;;;;;15.67;14.07;;;11.40;99.90;;;;;;5095484;28;20200;-81
2022/04/24 00:41:59;;;;;;;15.07;13.47;;;11.40;99.90;;;;;;5095022;28;20228;-81
2022/04/24 00:44:27;;;;;;;16.53;14.50;;;11.40;99.90;;;;;;5096022;28;20189;-82
2022/04/24 00:46:57;;;;;;;15.30;13.80;;;11.40;99.90;;;;;;5095453;28;20189;-82
2022/04/24 00:49:25;;;;;;;16.03;14.33;;;11.30;99.90;;;;;;5095548;28;20205;-82
2022/04/24 00:51:53;;;;;;;16.20;13.37;;;11.20;99.90;;;;;;5095799;28;20196;-82
2022/04/24 00:54:19;;;;;;;15.27;12.87;;;11.30;99.90;;;;;;5095188;28;20223;-81
2022/04/24 00:56:46;;;;;;;13.90;12.43;;;11.20;99.90;;;;;;5094695;28;20734;-79
2022/04/24 00:59:15;;;;;;;14.23;12.73;;;11.20;99.90;;;;;;5094992;28;20242;-80
2022/04/24 01:01:42;;;;;;;14.50;13.00;;;11.20;99.90;;;;;;5095251;28;20616;-80
2022/04/24 01:04:12;;;;;;;14.97;13.37;;;11.20;99.90;;;;;;5095295;28;20227;-80
2022/04/24 01:06:40;;;;;;;16.13;12.57;;;11.20;99.90;;;;;;5093989;28;20205;-80
2022/04/24 01:09:15;;;;;;;14.47;12.73;;;11.10;99.90;;;;;;5095541;28;20239;-80
2022/04/24 01:11:43;;;;;;;14.57;12.97;;;11.10;99.90;;;;;;5095315;28;20204;-82
2022/04/24 01:14:11;;;;;;;15.77;13.07;;;11.10;99.90;;;;;;5094449;28;20204;-80
2022/04/24 01:16:38;;;;;;;14.97;13.07;;;11.00;99.90;;;;;;5095120;28;20201;-81
2022/04/24 01:19:05;;;;;;;13.67;12.23;;;11.00;99.90;;;;;;5094727;28;20211;-80
2022/04/24 01:21:33;;;;;;;14.73;12.83;;;11.00;99.90;;;;;;5093977;28;20235;-81
2022/04/24 01:24:00;;;;;;;13.13;11.70;;;11.00;99.90;;;;;;5095231;28;20184;-81
2022/04/24 01:26:27;;;;;;;13.53;12.07;;;10.90;99.90;;;;;;5095128;28;20201;-81
2022/04/24 01:28:54;;;;;;;12.57;11.23;;;10.90;99.90;;;;;;5094038;28;20204;-81
2022/04/24 01:31:21;;;;;;;13.70;12.30;;;10.90;99.90;;;;;;5095253;28;20196;-81
2022/04/24 01:33:48;;;;;;;15.60;12.20;;;10.90;99.90;;;;;;5094989;28;20192;-80
2022/04/24 01:36:14;;;;;;;12.73;11.53;;;10.90;99.90;;;;;;5094434;28;20193;-79
2022/04/24 01:38:43;;;;;;;12.63;11.33;;;10.80;99.90;;;;;;5098060;28;20212;-80
2022/04/24 01:41:10;;;;;;;14.00;11.83;;;10.90;99.90;;;;;;5098811;28;20658;-81
2022/04/24 01:43:37;;;;;;;11.97;10.77;;;10.80;99.90;;;;;;5098380;28;20203;-80
2022/04/24 01:46:05;;;;;;;14.33;11.40;;;10.70;99.90;;;;;;5098475;28;20553;-80
2022/04/24 01:48:33;;;;;;;12.33;11.00;;;10.70;99.90;;;;;;5098273;28;20216;-80
2022/04/24 01:51:00;;;;;;;15.67;12.00;;;10.70;99.90;;;;;;5098536;28;20204;-80
2022/04/24 01:53:28;;;;;;;12.90;11.60;;;10.70;99.90;;;;;;5099009;28;20208;-80
2022/04/24 01:55:57;;;;;;;11.73;10.53;;;10.60;99.90;;;;;;5098469;28;20203;-80
2022/04/24 01:58:23;;;;;;;12.20;10.83;;;10.60;99.90;;;;;;5098491;28;20208;-80
2022/04/24 02:00:50;;;;;;;14.30;11.67;;;10.60;99.90;;;;;;5097869;28;20506;-80
2022/04/24 02:03:17;;;;;;;13.77;11.27;;;10.50;99.90;;;;;;5098114;28;20230;-80
2022/04/24 02:05:44;;;;;;;12.80;11.03;;;10.50;99.90;;;;;;5098094;28;20197;-80
2022/04/24 02:08:11;;;;;;;12.23;10.30;;;10.40;99.90;;;;;;5098668;28;20288;-81
2022/04/24 02:10:38;;;;;;;12.10;10.90;;;10.40;99.90;;;;;;5098830;28;20193;-80
2022/04/24 02:13:06;;;;;;;14.40;11.57;;;10.40;99.90;;;;;;5099130;28;20193;-80
2022/04/24 02:15:33;;;;;;;11.83;10.63;;;10.40;99.90;;;;;;5099300;28;20192;-81
2022/04/24 02:18:01;;;;;;;13.57;10.87;;;10.30;99.90;;;;;;5097655;28;20205;-80
2022/04/24 02:20:28;;;;;;;12.57;11.27;;;10.30;99.90;;;;;;5094888;28;20266;-80
2022/04/24 02:22:57;;;;;;;14.00;11.30;;;10.30;99.90;;;;;;5096551;28;20255;-81
2022/04/24 02:25:24;;;;;;;14.00;10.83;;;10.30;99.90;;;;;;5097142;28;20538;-80
2022/04/24 02:27:53;;;;;;;12.73;11.07;;;10.20;99.90;;;;;;5098657;28;20195;-80
2022/04/24 02:30:21;;;;;;;14.00;11.00;;;10.20;99.90;;;;;;5105479;28;20204;-80
2022/04/24 02:32:48;;;;;;;12.60;10.53;;;10.10;99.90;;;;;;5099814;28;20305;-81
2022/04/24 02:35:15;;;;;;;13.50;10.27;;;10.20;99.90;;;;;;5098269;28;20193;-81
2022/04/24 02:37:42;;;;;;;12.37;10.43;;;10.10;99.90;;;;;;5097930;28;20197;-80
2022/04/24 02:40:10;;;;;;;11.37;10.07;;;10.10;99.90;;;;;;5097165;28;20192;-80
2022/04/24 02:42:38;;;;;;;11.70;10.50;;;10.20;99.90;;;;;;5097427;28;20225;-79
2022/04/24 02:45:05;;;;;;;10.57;9.47;;;10.20;99.90;;;;;;5097941;28;20211;-80
2022/04/24 02:47:33;;;;;;;11.93;9.73;;;10.10;99.90;;;;;;5097443;28;20201;-79
2022/04/24 02:50:00;;;;;;;11.23;10.00;;;10.10;99.90;;;;;;5097236;28;20197;-80
2022/04/24 02:52:27;;;;;;;13.07;9.67;;;10.00;99.90;;;;;;5096920;28;20225;-80
2022/04/24 02:54:54;;;;;;;10.50;9.40;;;10.00;99.90;;;;;;5097275;28;20201;-81
2022/04/24 02:57:21;;;;;;;10.37;8.93;;;10.00;99.90;;;;;;5097810;28;20204;-81
2022/04/24 02:59:49;;;;;;;10.53;9.43;;;10.00;99.90;;;;;;5097411;28;20203;-81
2022/04/24 03:02:16;;;;;;;10.87;8.93;;;10.00;99.90;;;;;;5097729;28;20545;-79
2022/04/24 03:04:45;;;;;;;9.60;8.70;;;9.90;99.90;;;;;;5097303;28;20265;-81
2022/04/24 03:07:12;;;;;;;11.10;9.10;;;10.00;99.90;;;;;;5097097;28;20197;-81
2022/04/24 03:09:39;;;;;;;9.07;8.17;;;10.00;99.90;;;;;;5097385;28;20214;-80
2022/04/24 03:12:07;;;;;;;14.27;9.23;;;10.00;99.90;;;;;;5097235;28;20592;-81
2022/04/24 03:14:33;;;;;;;10.17;8.73;;;9.90;99.90;;;;;;5097149;28;20207;-81
2022/04/24 03:17:00;;;;;;;9.40;8.40;;;10.00;99.90;;;;;;5097544;28;20208;-81
2022/04/24 03:19:27;;;;;;;9.33;8.20;;;10.00;99.90;;;;;;5097038;28;20604;-81
2022/04/24 03:21:55;;;;;;;10.40;8.87;;;9.90;99.90;;;;;;5096713;28;20225;-81
2022/04/24 03:24:22;;;;;;;9.10;8.20;;;9.90;99.90;;;;;;5097400;28;20203;-80
2022/04/24 03:26:49;;;;;;;11.63;8.73;;;9.90;99.90;;;;;;5096161;28;20201;-80
2022/04/24 03:29:16;;;;;;;9.63;8.20;;;9.90;99.90;;;;;;5097036;28;20235;-80
2022/04/24 03:31:43;;;;;;;12.50;9.33;;;9.90;99.90;;;;;;5096969;28;20238;-80
2022/04/24 03:34:09;;;;;;;8.93;8.03;;;9.90;99.90;;;;;;5096423;28;20207;-80
2022/04/24 03:36:36;;;;;;;8.73;7.83;;;9.90;99.90;;;;;;5096247;28;20204;-79
2022/04/24 03:39:04;;;;;;;9.90;8.03;;;9.90;99.90;;;;;;5095309;28;20208;-81
2022/04/24 03:41:31;;;;;;;9.13;7.77;;;9.90;99.90;;;;;;5096068;28;20204;-80
2022/04/24 03:43:58;;;;;;;13.63;8.53;;;9.90;99.90;;;;;;5096383;28;20185;-79
2022/04/24 03:46:24;;;;;;;12.30;8.83;;;9.90;99.90;;;;;;5095866;28;20221;-80
2022/04/24 03:48:51;;;;;;;9.67;7.97;;;9.80;99.90;;;;;;5095716;28;20596;-79
2022/04/24 03:51:18;;;;;;;11.27;8.73;;;9.80;99.90;;;;;;5095853;28;20212;-79
2022/04/24 03:53:45;;;;;;;10.40;8.23;;;9.70;99.90;;;;;;5096719;28;20193;-81
2022/04/24 03:56:14;;;;;;;11.23;9.37;;;9.70;99.90;;;;;;5096132;28;20199;-80
2022/04/24 03:58:41;;;;;;;10.53;8.90;;;9.60;99.90;;;;;;5096102;28;20261;-80
2022/04/24 04:01:07;;;;;;;8.70;7.73;;;9.60;99.90;;;;;;5096349;28;20622;-80
2022/04/24 04:03:34;;;;;;;10.17;8.20;;;9.60;99.90;;;;;;5095618;28;20231;-80
2022/04/24 04:06:01;;;;;;;10.03;8.53;;;9.50;99.90;;;;;;5096193;28;20227;-80
2022/04/24 04:08:28;;;;;;;10.77;8.60;;;9.40;99.90;;;;;;5096269;28;20200;-80
2022/04/24 04:10:55;;;;;;;9.40;8.20;;;9.40;99.90;;;;;;5095697;28;20208;-79
2022/04/24 04:13:23;;;;;;;10.53;9.10;;;9.40;99.90;;;;;;5096180;28;20224;-80
2022/04/24 04:15:50;;;;;;;9.20;8.30;;;9.40;99.90;;;;;;5095556;28;20216;-80
2022/04/24 04:18:17;;;;;;;10.23;9.23;;;9.40;99.90;;;;;;5095385;28;20193;-79
2022/04/24 04:20:44;;;;;;;9.60;8.60;;;9.40;99.90;;;;;;5095727;28;20538;-81
2022/04/24 04:23:11;;;;;;;12.03;8.80;;;9.30;99.90;;;;;;5095345;28;20278;-81
2022/04/24 04:25:38;;;;;;;12.40;9.47;;;9.30;99.90;;;;;;5095843;28;20204;-81
2022/04/24 04:28:05;;;;;;;12.23;8.97;;;9.20;99.90;;;;;;5096182;28;20197;-81
2022/04/24 04:30:33;;;;;;;10.97;9.57;;;9.20;99.90;;;;;;5095811;28;20204;-80
2022/04/24 04:33:00;;;;;;;10.27;9.20;;;9.30;99.90;;;;;;5095891;28;20224;-81
2022/04/24 04:35:27;;;;;;;10.40;9.30;;;9.30;99.90;;;;;;5095366;28;20299;-82
2022/04/24 04:37:54;;;;;;;12.10;9.57;;;9.30;99.90;;;;;;5091614;28;20212;-81
2022/04/24 04:40:21;;;;;;;10.40;9.17;;;9.30;99.90;;;;;;5091467;28;20201;-82
2022/04/24 04:42:49;;;;;;;9.93;8.93;;;9.40;99.90;;;;;;5095717;28;20498;-81
2022/04/24 04:45:16;;;;;;;11.27;8.90;;;9.40;99.90;;;;;;5095124;28;20193;-81
2022/04/24 04:47:47;;;;;;;11.37;9.33;;;9.30;99.90;;;;;;5092676;28;20295;-81
2022/04/24 04:50:13;;;;;;;10.40;9.30;;;9.30;99.90;;;;;;5095801;28;20303;-82
2022/04/24 04:52:40;;;;;;;11.77;9.07;;;9.20;99.90;;;;;;5095170;28;20196;-79
2022/04/24 04:55:08;;;;;;;11.37;9.47;;;9.30;99.90;;;;;;5095191;28;20238;-83
2022/04/24 04:57:34;;;;;;;10.70;9.27;;;9.30;99.90;;;;;;5095222;28;20192;-81
2022/04/24 05:00:01;;;;;;;9.93;8.67;;;9.30;99.90;;;;;;5094456;28;20200;-81
2022/04/24 05:02:28;;;;;;;9.50;8.60;;;9.20;99.90;;;;;;5095229;28;20214;-80
2022/04/24 05:04:56;;;;;;;13.07;9.30;;;9.20;99.90;;;;;;5093858;28;20277;-81
2022/04/24 05:07:23;;;;;;;10.53;8.97;;;9.20;99.90;;;;;;5091949;28;20740;-81
2022/04/24 05:09:50;;;;;;;11.33;9.50;;;9.20;99.90;;;;;;5095338;28;20695;-82
2022/04/24 05:12:17;;;;;;;13.17;8.57;;;9.20;99.90;;;;;;5094598;28;20559;-80
2022/04/24 05:14:45;;;;;;;14.13;9.80;;;9.30;99.90;;;;;;5094747;28;20261;-82
2022/04/24 05:17:12;;;;;;;10.83;8.43;;;9.20;99.90;;;;;;5077556;28;20193;-81
2022/04/24 05:19:39;;;;;;;11.73;9.13;;;9.20;99.90;;;;;;5094688;28;20196;-79
2022/04/24 05:22:08;;;;;;;10.93;9.60;;;9.20;99.90;;;;;;5094920;28;20261;-80
2022/04/24 05:24:35;;;;;;;9.13;8.10;;;9.20;99.90;;;;;;5095145;28;20206;-81
2022/04/24 05:27:02;;;;;;;11.53;10.30;;;9.20;99.90;;;;;;5094660;28;20204;-82
2022/04/24 05:29:28;;;;;;;10.43;8.33;;;9.20;99.90;;;;;;5093853;28;20204;-80
2022/04/24 05:31:56;;;;;;;11.90;8.40;;;9.30;99.90;;;;;;5095014;28;20215;-80
2022/04/24 05:34:22;;;;;;;9.97;8.60;;;9.30;99.90;;;;;;5094593;28;20250;-82
2022/04/24 05:36:49;;;;;;;9.63;8.17;;;9.30;99.90;;;;;;5094704;28;20211;-81
2022/04/24 05:39:17;;;;;;;10.20;8.77;;;9.40;99.90;;;;;;5094915;28;20197;-80
2022/04/24 05:41:44;;;;;;;10.33;8.50;;;9.40;99.90;;;;;;5094237;28;20204;-80
2022/04/24 05:44:11;;;;;;;10.80;9.20;;;9.40;99.90;;;;;;5095096;28;20523;-81
2022/04/24 05:46:38;;;;;;;11.23;9.13;;;9.40;99.90;;;;;;5094775;28;20219;-80
2022/04/24 05:49:04;;;;;;;10.20;9.07;;;9.50;99.90;;;;;;5094571;28;20234;-80
2022/04/24 05:51:33;;;;;;;12.60;9.13;;;9.50;99.90;;;;;;5095080;28;20196;-81
2022/04/24 05:54:00;;;;;;;10.73;9.63;;;9.50;99.90;;;;;;5094425;28;20239;-81
2022/04/24 05:56:28;;;;;;;10.07;9.07;;;9.50;99.90;;;;;;5094394;28;20204;-80
2022/04/24 05:58:55;;;;;;;9.70;8.70;;;9.60;99.90;;;;;;5094356;28;20631;-81
2022/04/24 06:01:22;;;;;;;10.43;8.30;;;9.60;99.90;;;;;;5094706;28;20201;-83
2022/04/24 06:03:49;;;;;;;9.17;8.27;;;9.60;99.90;;;;;;5094130;28;20232;-81
2022/04/24 06:06:16;;;;;;;10.00;8.73;;;9.70;99.90;;;;;;5094081;28;20200;-81
2022/04/24 06:08:43;;;;;;;9.77;8.40;;;9.70;99.90;;;;;;5094340;28;20196;-82
2022/04/24 06:11:10;;;;;;;8.83;8.03;;;9.80;99.90;;;;;;5095138;28;20549;-80
2022/04/24 06:13:39;;;;;;;10.83;8.57;;;9.90;99.90;;;;;;5094981;28;20189;-82
2022/04/24 06:16:06;;;;;;;9.73;8.73;;;9.90;99.90;;;;;;5093773;28;20255;-83
2022/04/24 06:18:33;;;;;;;9.83;8.83;;;9.90;99.90;;;;;;5094825;28;20202;-81
2022/04/24 06:21:00;;;;;;;10.90;9.53;;;9.90;99.90;;;;;;5094019;28;20235;-81
2022/04/24 06:23:28;;;;;;;9.60;8.60;;;10.00;99.90;;;;;;5094395;28;20573;-81
2022/04/24 06:25:57;;;;;;;11.77;9.67;;;10.10;99.90;;;;;;5098226;28;20232;-84
2022/04/24 06:28:23;;;;;;;9.77;8.77;;;10.20;99.90;;;;;;5098320;28;20219;-82
2022/04/24 06:30:52;;;;;;;12.50;9.07;;;10.30;99.90;;;;;;5097533;28;20207;-81
2022/04/24 06:33:19;;;;;;;10.97;9.00;;;10.30;99.90;;;;;;5098314;28;20216;-82
2022/04/24 06:35:46;;;;;;;9.73;8.50;;;10.50;99.90;;;;;;5098258;28;20295;-80
2022/04/24 06:38:13;;;;;;;10.43;8.87;;;10.50;99.90;;;;;;5097710;28;20208;-81
2022/04/24 06:40:40;;;;;;;10.10;9.10;;;10.60;99.90;;;;;;5098295;28;20193;-81
2022/04/24 06:43:08;;;;;;;11.03;8.30;;;10.70;99.90;;;;;;5097397;28;20251;-82
2022/04/24 06:45:37;;;;;;;9.07;7.77;;;10.90;99.90;;;;;;5097958;28;20200;-82
2022/04/24 06:48:09;;;;;;;9.67;8.23;;;11.10;99.90;;;;;;5098256;28;20203;-81
2022/04/24 06:50:38;;;;;;;14.10;8.67;;;11.10;99.90;;;;;;5098204;28;20270;-82
2022/04/24 06:53:06;;;;;;;8.93;8.10;;;11.30;99.90;;;;;;5097216;28;20661;-81
2022/04/24 06:55:34;;;;;;;9.27;8.27;;;11.60;99.90;;;;;;5097401;28;20204;-81
2022/04/24 06:58:02;;;;;;;8.63;7.60;;;11.70;99.90;;;;;;5093055;28;20199;-82
2022/04/24 07:00:31;;;;;;;10.37;7.07;;;11.90;99.90;;;;;;5098155;28;20778;-83
2022/04/24 07:02:58;;;;;;;9.67;7.83;;;12.10;99.90;;;;;;5097857;28;20312;-82
2022/04/24 07:05:28;;;;;;;9.57;8.57;;;12.30;99.90;;;;;;5097165;28;20557;-81
2022/04/24 07:07:55;;;;;;;10.03;8.03;;;12.40;99.90;;;;;;5097119;28;20201;-80
2022/04/24 07:10:22;;;;;;;10.40;7.20;;;12.30;99.90;;;;;;5097708;28;20189;-82
2022/04/24 07:12:50;;;;;;;9.00;7.60;;;12.40;99.90;;;;;;5096591;28;20193;-81
2022/04/24 07:15:19;;;;;;;9.47;7.70;;;12.60;99.90;;;;;;5096889;28;20616;-82
2022/04/24 07:17:46;;;;;;;8.50;7.67;;;12.60;99.90;;;;;;5097539;28;20208;-82
2022/04/24 07:20:14;;;;;;;9.07;7.57;;;12.60;99.90;;;;;;5097163;28;20236;-82
2022/04/24 07:22:47;;;;;;;9.37;7.07;;;12.80;99.90;;;;;;5096544;28;20212;-81
2022/04/24 07:25:15;;;;;;;8.33;7.27;;;13.10;99.90;;;;;;5097226;28;20616;-82
2022/04/24 07:27:42;;;;;;;7.87;7.07;;;13.10;99.90;;;;;;5096399;28;20600;-82
2022/04/24 07:30:13;;;;;;;7.80;7.03;;;13.10;99.90;;;;;;5096718;28;20212;-82
2022/04/24 07:32:41;;;;;;;7.47;6.67;;;13.50;99.90;;;;;;5097256;28;20208;-82
2022/04/24 07:35:12;;;;;;;7.77;6.90;;;13.40;99.90;;;;;;5096076;28;20209;-81
2022/04/24 07:37:39;;;;;;;7.73;6.70;;;13.50;99.90;;;;;;5097193;28;20209;-82
2022/04/24 07:40:10;;;;;;;7.53;6.80;;;13.60;99.90;;;;;;5096300;28;20204;-82
2022/04/24 07:42:47;;;;;;;9.30;6.80;;;13.80;99.90;;;;;;5097227;28;20189;-82
2022/04/24 07:45:24;;;;;;;8.93;7.07;;;13.70;99.90;;;;;;5096809;28;20196;-82
2022/04/24 07:47:52;;;;;;;8.17;6.60;;;13.40;99.90;;;;;;5096642;28;20180;-83
2022/04/24 07:50:20;;;;;;;9.17;6.63;;;13.30;99.90;;;;;;5096974;28;20199;-83
2022/04/24 07:52:48;;;;;;;7.47;6.03;;;13.50;99.90;;;;;;5097327;28;20235;-83
2022/04/24 07:55:18;;;;;;;8.27;6.57;;;13.60;99.90;;;;;;5096383;28;20211;-84
2022/04/24 07:57:45;;;;;;;7.27;6.47;;;13.70;99.90;;;;;;5096480;28;20584;-83
2022/04/24 08:00:13;;;;;;;6.87;6.20;;;13.80;99.90;;;;;;5096741;28;20196;-82
2022/04/24 08:02:49;;;;;;;7.90;6.67;;;13.90;99.90;;;;;;5096189;28;20199;-82
2022/04/24 08:05:23;;;;;;;9.13;6.70;;;13.90;99.90;;;;;;5096123;28;20211;-82
2022/04/24 08:07:50;;;;;;;7.53;6.10;;;13.90;99.90;;;;;;5096694;28;20208;-82
2022/04/24 08:10:19;;;;;;;8.27;6.77;;;14.10;99.90;;;;;;5095146;28;20235;-82
2022/04/24 08:12:46;;;;;;;7.13;6.30;;;14.10;99.90;;;;;;5096690;28;20279;-82
2022/04/24 08:15:13;;;;;;;7.77;6.63;;;14.10;99.90;;;;;;5095544;28;20564;-80
2022/04/24 08:17:40;;;;;;;6.77;6.07;;;14.20;99.90;;;;;;5096002;28;20319;-81
2022/04/24 08:20:09;;;;;;;7.07;6.27;;;14.40;99.90;;;;;;5096397;28;20240;-80
2022/04/24 08:22:40;;;;;;;10.77;6.23;;;14.60;99.90;;;;;;5096231;28;20197;-81
2022/04/24 08:25:08;;;;;;;6.77;5.93;;;14.50;99.90;;;;;;5096880;28;20357;-82
2022/04/24 08:27:37;;;;;;;9.60;6.67;;;14.90;99.90;;;;;;5092107;28;20287;-83
2022/04/24 08:30:05;;;;;;;7.20;6.30;;;14.80;99.90;;;;;;5094295;28;20207;-81
2022/04/24 08:32:32;;;;;;;6.37;5.63;;;14.80;99.90;;;;;;5094557;28;20224;-81
2022/04/24 08:34:58;;;;;;;7.00;6.37;;;15.00;99.90;;;;;;5094936;28;20238;-81
2022/04/24 08:37:25;;;;;;;6.87;6.07;;;15.10;99.90;;;;;;5096379;28;20231;-82
2022/04/24 08:39:52;;;;;;;7.85;6.13;;;15.30;99.90;;;;;;5100710;28;20200;-82
2022/04/24 08:42:21;;;;;;;8.17;6.03;;;15.50;99.90;;;;;;5096122;28;20218;-79
2022/04/24 08:44:50;;;;;;;6.13;5.53;;;15.60;99.90;;;;;;5097118;28;20228;-80
2022/04/24 08:47:18;;;;;;;8.97;6.20;;;15.30;99.90;;;;;;5102175;28;20196;-81
2022/04/24 08:49:45;;;;;;;7.13;6.00;;;15.60;99.90;;;;;;5100568;28;20200;-80
2022/04/24 08:52:12;;;;;;;7.43;5.85;;;15.70;99.90;;;;;;5095886;28;20598;-82
2022/04/24 08:54:41;;;;;;;6.22;5.63;;;16.00;99.90;;;;;;5094427;28;20208;-80
2022/04/24 08:57:08;;;;;;;8.73;6.28;;;16.10;99.90;;;;;;5095898;28;20208;-82
2022/04/24 08:59:36;;;;;;;6.85;6.05;;;15.90;99.90;;;;;;5092779;28;20205;-81
2022/04/24 09:02:05;;;;;;;8.10;6.63;;;15.80;99.90;;;;;;5095701;28;20188;-81
2022/04/24 09:04:33;;;;;;;6.32;5.72;;;16.00;99.90;;;;;;5094449;28;20236;-83
2022/04/24 09:07:01;;;;;;;6.18;5.57;;;16.00;99.90;;;;;;5095873;28;20211;-83
2022/04/24 09:09:29;;;;;;;7.80;5.90;;;16.10;99.90;;;;;;5094747;28;20222;-80
2022/04/24 09:12:07;;;;;;;8.70;6.00;;;16.00;99.90;;;;;;5092445;28;20204;-80
2022/04/24 09:14:34;;;;;;;6.38;5.70;;;16.10;99.90;;;;;;5095539;28;20275;-83
2022/04/24 09:17:07;;;;;;;7.57;6.77;;;16.20;99.90;;;;;;5094970;28;20205;-81
2022/04/24 09:19:36;;;;;;;6.90;6.30;;;16.40;99.90;;;;;;5094837;28;20211;-81
2022/04/24 09:22:05;;;;;;;6.65;5.65;;;16.40;99.90;;;;;;5094830;28;20250;-81
2022/04/24 09:24:40;;;;;;;7.85;6.45;;;16.70;99.90;;;;;;5095138;28;20258;-81
2022/04/24 09:27:07;;;;;;;6.70;6.00;;;16.70;99.90;;;;;;5092860;28;20188;-81
2022/04/24 09:29:34;;;;;;;10.18;6.53;;;16.80;99.90;;;;;;5091630;28;20211;-81
2022/04/24 09:32:01;;;;;;;7.35;6.60;;;17.00;99.90;;;;;;5094636;28;20232;-82
2022/04/24 09:34:31;;;;;;;10.65;6.45;;;17.10;99.90;;;;;;5095072;28;20216;-82
2022/04/24 09:37:02;;;;;;;8.55;6.70;;;17.30;99.90;;;;;;5095683;28;20204;-83
2022/04/24 09:39:30;;;;;;;7.45;6.38;;;17.20;99.90;;;;;;5094818;28;20230;-83
2022/04/24 09:42:04;;;;;;;8.43;7.38;;;17.30;99.90;;;;;;5094610;28;20195;-83
2022/04/24 09:44:38;;;;;;;10.27;7.00;;;17.20;99.90;;;;;;5094862;28;20744;-82
2022/04/24 09:47:05;;;;;;;9.18;7.03;;;17.20;99.90;;;;;;5094871;28;20197;-84
2022/04/24 09:49:37;;;;;;;8.02;7.20;;;16.90;99.90;;;;;;5094906;28;20223;-84
2022/04/24 09:52:07;;;;;;;7.22;6.53;;;16.60;99.90;;;;;;5094235;28;20204;-81
2022/04/24 09:54:34;;;;;;;8.57;6.63;;;16.60;99.90;;;;;;5094502;28;20529;-81
2022/04/24 09:57:03;;;;;;;8.10;6.73;;;16.60;99.90;;;;;;5094333;28;20204;-85
2022/04/24 09:59:30;;;;;;;9.55;6.68;;;16.70;99.90;;;;;;5097831;28;20207;-81
2022/04/24 10:01:57;;;;;;;9.15;6.32;;;16.90;99.90;;;;;;5096877;28;20280;-81
2022/04/24 10:04:25;;;;;;;7.65;6.88;;;17.20;99.90;;;;;;5098728;28;20227;-81
2022/04/24 10:06:54;;;;;;;8.60;6.65;;;17.10;99.90;;;;;;5098625;28;20196;-80
2022/04/24 10:09:21;;;;;;;7.72;6.13;;;17.10;99.90;;;;;;5096844;28;20208;-82
2022/04/24 10:11:50;;;;;;;9.10;7.35;;;17.20;99.90;;;;;;5098623;28;20212;-84
2022/04/24 10:14:18;;;;;;;6.65;5.88;;;17.10;99.90;;;;;;5098024;28;20277;-81
2022/04/24 10:17:14;;;;;;;9.15;6.97;;;17.30;99.90;;;;;;5097902;28;20240;-81
2022/04/24 10:19:56;;;;;;;9.13;7.10;;;17.60;99.90;;;;;;5097464;28;20603;-82
2022/04/24 10:22:38;;;;;;;9.68;6.35;;;17.60;99.90;;;;;;5098120;28;20200;-83
2022/04/24 10:25:06;;;;;;;7.97;6.40;;;17.50;99.90;;;;;;5098749;28;20221;-85
2022/04/24 10:27:40;;;;;;;8.13;6.57;;;17.40;99.90;;;;;;5098628;28;20200;-82
2022/04/24 10:30:11;;;;;;;7.45;6.43;;;17.40;99.90;;;;;;5097664;28;20483;-83
2022/04/24 10:32:38;;;;;;;8.60;6.72;;;17.30;99.90;;;;;;5098610;28;20301;-82
2022/04/24 10:35:16;;;;;;;9.80;6.25;;;17.40;99.90;;;;;;5098121;28;20204;-85
2022/04/24 10:37:44;;;;;;;8.02;6.68;;;17.30;99.90;;;;;;5097849;28;20228;-81
2022/04/24 10:40:14;;;;;;;8.27;6.28;;;17.50;99.90;;;;;;5098098;28;20208;-83
2022/04/24 10:42:42;;;;;;;8.93;5.88;;;17.50;99.90;;;;;;5097766;28;20208;-84
2022/04/24 10:45:13;;;;;;;6.20;5.57;;;17.50;99.90;;;;;;5096012;28;20216;-82
2022/04/24 10:47:46;;;;;;;6.88;6.05;;;17.60;99.90;;;;;;5097638;28;20307;-81
2022/04/24 10:50:14;;;;;;;6.80;5.20;;;17.70;99.90;;;;;;5097369;28;20208;-83
2022/04/24 10:52:42;;;;;;;7.72;5.38;;;17.70;99.90;;;;;;5097336;28;20208;-82
2022/04/24 10:55:13;;;;;;;5.40;4.32;;;17.80;99.90;;;;;;5097976;28;20197;-83
2022/04/24 10:57:45;;;;;;;5.28;3.85;;;17.80;99.90;;;;;;5097101;28;20226;-83
2022/04/24 11:00:16;;;;;;;4.20;3.80;;;17.70;99.90;;;;;;5096887;28;20209;-82
2022/04/24 11:02:44;;;;;;;4.70;3.95;;;17.80;99.90;;;;;;5097763;28;20205;-83
2022/04/24 11:05:10;;;;;;;4.00;3.40;;;18.00;99.90;;;;;;5096913;28;20221;-83
2022/04/24 11:07:37;;;;;;;4.45;2.80;;;18.20;99.90;;;;;;5098090;28;20201;-81
2022/04/24 11:10:08;;;;;;;3.38;3.03;;;18.30;99.90;;;;;;5096946;28;20208;-81
2022/04/24 11:12:38;;;;;;;4.88;2.80;;;18.20;99.90;;;;;;5097063;28;20581;-83
2022/04/24 11:15:07;;;;;;;3.95;2.55;;;18.00;99.90;;;;;;5097339;28;20207;-80
2022/04/24 11:17:34;;;;;;;3.55;2.78;;;17.90;99.90;;;;;;5097164;28;20592;-83
2022/04/24 11:20:03;;;;;;;2.88;2.47;;;18.10;99.90;;;;;;5093457;28;20267;-84
2022/04/24 11:22:31;;;;;;;3.80;2.35;;;18.30;99.90;;;;;;5094548;28;20208;-83
2022/04/24 11:25:00;;;;;;;2.95;2.63;;;18.50;99.90;;;;;;5096862;28;20559;-82
2022/04/24 11:27:27;;;;;;;5.55;2.75;;;18.50;99.90;;;;;;5096557;28;20204;-83
2022/04/24 11:29:56;;;;;;;6.15;3.28;;;18.30;99.90;;;;;;5096958;28;20231;-83
2022/04/24 11:32:23;;;;;;;2.95;2.63;;;18.20;99.90;;;;;;5096145;28;20228;-80
2022/04/24 11:34:50;;;;;;;4.40;2.92;;;18.40;99.90;;;;;;5095198;28;20265;-84
2022/04/24 11:37:17;;;;;;;4.53;2.92;;;18.40;99.90;;;;;;5096850;28;20213;-82
2022/04/24 11:39:44;;;;;;;3.08;2.72;;;18.30;99.90;;;;;;5096449;28;20203;-83
2022/04/24 11:42:10;;;;;;;3.38;2.90;;;18.20;99.90;;;;;;5095878;28;20518;-82
2022/04/24 11:50:17;;;;;;;3.17;2.88;;;18.30;99.90;;;;;;5097032;28;20256;-83
2022/04/24 11:52:46;;;;;;;3.28;2.83;;;18.30;99.90;;;;;;5097751;28;20212;-84
2022/04/24 11:55:15;;;;;;;2.90;2.42;;;18.30;99.90;;;;;;5087580;28;20196;-83
2022/04/24 11:57:42;;;;;;;2.83;2.25;;;18.30;99.90;;;;;;5097549;28;20291;-82
2022/04/24 12:00:14;;;;;;;6.40;2.78;;;18.50;99.90;;;;;;5097405;28;20200;-85
2022/04/24 12:02:43;;;;;;;4.47;2.40;;;18.50;99.90;;;;;;5096776;28;20236;-86
2022/04/24 12:05:11;;;;;;;2.50;2.00;;;18.40;99.90;;;;;;5097014;28;20232;-84
2022/04/24 12:07:38;;;;;;;4.75;2.45;;;18.10;99.90;;;;;;5096126;28;20204;-83
2022/04/24 12:10:07;;;;;;;4.32;2.20;;;18.10;99.90;;;;;;5096761;28;20189;-82
2022/04/24 12:12:44;;;;;;;2.95;2.35;;;18.20;99.90;;;;;;5096715;28;20541;-84
2022/04/24 12:15:14;;;;;;;4.07;2.42;;;18.20;99.90;;;;;;5096322;28;20218;-82
2022/04/24 12:17:51;;;;;;;2.88;1.98;;;18.20;99.90;;;;;;5095690;28;20215;-83
2022/04/24 12:20:18;;;;;;;4.35;2.40;;;18.10;99.90;;;;;;5096458;28;20585;-84
2022/04/24 12:22:45;;;;;;;2.10;1.90;;;18.10;99.90;;;;;;5095180;28;20192;-84
2022/04/24 12:25:15;;;;;;;3.28;2.60;;;18.00;99.90;;;;;;5095540;28;20785;-83
2022/04/24 12:27:52;;;;;;;3.50;2.00;;;18.00;99.90;;;;;;5095049;28;20200;-83
2022/04/24 12:30:19;;;;;;;2.78;1.90;;;18.20;99.90;;;;;;5096361;28;20196;-83
2022/04/24 12:32:47;;;;;;;2.85;2.17;;;18.10;99.90;;;;;;5096346;28;20623;-83
2022/04/24 12:35:28;;;;;;;4.85;2.30;;;18.10;99.90;;;;;;5096341;28;20205;-82
2022/04/24 12:37:55;;;;;;;3.47;2.10;;;18.20;99.90;;;;;;5095068;28;20204;-83
2022/04/24 12:40:22;;;;;;;3.58;2.55;;;18.10;99.90;;;;;;5097086;28;20257;-83
2022/04/24 12:42:52;;;;;;;2.60;2.05;;;18.10;99.90;;;;;;5095899;28;20204;-85
2022/04/24 12:45:20;;;;;;;4.30;2.28;;;18.10;99.90;;;;;;5107825;22;20276;-82
2022/04/24 12:47:47;;;;;;;4.82;2.08;;;17.90;99.90;;;;;;5104264;28;20227;-83
2022/04/24 12:50:14;;;;;;;3.15;2.13;;;17.80;99.90;;;;;;5113757;28;20231;-82
2022/04/24 12:52:43;;;;;;;4.22;1.90;;;17.70;99.90;;;;;;5116215;28;20200;-83